Time;durP1;ratioP1;P1;durP2;ratioP2;P2;SDS_P1;SDS_P2;PMS_P1;PMS_P2;Temp;Humidity;BMP_temperature;BMP_pressure;BME280_temperature;BME280_humidity;BME280_pressure;Samples;Min_cycle;Max_cycle;Signal;HPM_P1;HPM_P2
2022/12/09 06:34:56;;;;;;;;;70.25;59.50;;;;;;;;4149259;32;6200572;-91
2022/12/09 06:37:41;;;;;;;;;67.25;50.75;;;;;;;;5062041;28;52185;-91
2022/12/09 06:40:26;;;;;;;;;65.75;51.75;;;;;;;;5071462;28;51394;-91
2022/12/09 06:43:10;;;;;;;;;70.75;52.50;;;;;;;;5068530;28;50458;-90
2022/12/09 06:45:55;;;;;;;;;63.00;49.50;;;;;;;;5065008;28;51453;-91
2022/12/09 06:48:39;;;;;;;;;63.50;50.00;;;;;;;;5078499;28;50520;-92
2022/12/09 06:51:25;;;;;;;;;66.00;51.75;;;;;;;;5062551;28;51221;-91
2022/12/09 06:54:09;;;;;;;;;76.50;65.50;;;;;;;;5082851;28;51198;-90
2022/12/09 06:56:54;;;;;;;;;99.00;92.00;;;;;;;;5082423;28;51064;-90
2022/12/09 06:59:38;;;;;;;;;75.25;61.50;;;;;;;;5076648;28;50559;-91
2022/12/09 07:02:24;;;;;;;;;71.00;54.00;;;;;;;;5094776;28;51045;-91
2022/12/09 07:05:10;;;;;;;;;72.00;55.25;;;;;;;;5073821;28;51204;-91
2022/12/09 07:07:54;;;;;;;;;71.00;52.25;;;;;;;;5056600;28;50568;-91
2022/12/09 07:10:40;;;;;;;;;67.00;52.25;;;;;;;;5079373;28;51047;-92
2022/12/09 07:13:24;;;;;;;;;63.25;50.25;;;;;;;;5070318;28;50994;-91
2022/12/09 07:16:09;;;;;;;;;55.25;43.50;;;;;;;;5078708;28;51164;-91
2022/12/09 07:18:53;;;;;;;;;61.00;47.25;;;;;;;;5066745;28;50879;-91
2022/12/09 07:21:38;;;;;;;;;68.75;53.75;;;;;;;;5082828;28;50882;-91
2022/12/09 07:24:25;;;;;;;;;67.75;51.25;;;;;;;;5096848;28;50493;-92
2022/12/09 07:27:12;;;;;;;;;66.50;52.75;;;;;;;;5080338;28;51210;-92
2022/12/09 07:29:57;;;;;;;;;64.50;50.50;;;;;;;;5087344;28;50747;-91
2022/12/09 07:32:41;;;;;;;;;62.00;49.00;;;;;;;;5080104;28;51672;-91
2022/12/09 07:35:26;;;;;;;;;57.00;46.25;;;;;;;;5068976;28;50823;-90
2022/12/09 07:38:11;;;;;;;;;59.00;47.00;;;;;;;;5049393;28;50852;-91
2022/12/09 07:41:03;;;;;;;;;63.25;49.75;;;;;;;;5066182;28;50500;-91
2022/12/09 07:43:47;;;;;;;;;61.75;49.25;;;;;;;;5063739;28;50871;-92
2022/12/09 07:46:32;;;;;;;;;65.25;51.25;;;;;;;;5061886;28;51224;-91
2022/12/09 07:49:16;;;;;;;;;65.25;51.75;;;;;;;;5053969;28;50504;-91
2022/12/09 07:52:01;;;;;;;;;65.50;52.25;;;;;;;;5067193;28;50476;-92
2022/12/09 07:54:45;;;;;;;;;61.75;49.50;;;;;;;;5073198;28;50551;-90
2022/12/09 07:57:30;;;;;;;;;65.75;51.00;;;;;;;;5052721;28;50488;-91
2022/12/09 08:00:14;;;;;;;;;62.00;49.50;;;;;;;;5066754;28;51126;-92
2022/12/09 08:02:59;;;;;;;;;66.50;50.50;;;;;;;;5064595;28;50365;-92
2022/12/09 08:05:50;;;;;;;;;70.25;56.50;;;;;;;;5078462;28;50853;-91
2022/12/09 08:08:34;;;;;;;;;64.50;50.75;;;;;;;;5064367;28;50500;-92
2022/12/09 08:11:26;;;;;;;;;65.25;50.50;;;;;;;;5051689;28;50888;-91
2022/12/09 08:14:11;;;;;;;;;61.50;48.50;;;;;;;;5059398;28;51191;-91
2022/12/09 08:16:55;;;;;;;;;53.50;43.25;;;;;;;;5066382;28;51015;-91
2022/12/09 08:19:40;;;;;;;;;53.00;42.00;;;;;;;;5070999;28;50864;-92
2022/12/09 08:22:24;;;;;;;;;48.75;35.25;;;;;;;;5066729;28;50468;-91
2022/12/09 08:25:09;;;;;;;;;46.75;37.25;;;;;;;;5066280;28;51202;-91
2022/12/09 08:27:56;;;;;;;;;48.00;38.75;;;;;;;;5066415;28;50411;-91
2022/12/09 08:30:41;;;;;;;;;55.00;40.00;;;;;;;;5061839;28;50586;-91
2022/12/09 08:33:25;;;;;;;;;46.50;38.75;;;;;;;;5049622;28;50714;-90
2022/12/09 08:36:23;;;;;;;;;47.50;38.25;;;;;;;;5029923;28;51170;-91
2022/12/09 08:39:13;;;;;;;;;52.75;41.50;;;;;;;;5034135;28;51152;-91
2022/12/09 08:41:57;;;;;;;;;52.50;42.25;;;;;;;;5036908;28;51091;-91
2022/12/09 08:44:42;;;;;;;;;62.25;49.00;;;;;;;;5040175;28;50910;-90
2022/12/09 08:47:27;;;;;;;;;62.75;48.75;;;;;;;;5024956;28;50872;-90
2022/12/09 08:50:11;;;;;;;;;60.00;46.50;;;;;;;;5024771;28;50928;-90
2022/12/09 08:52:55;;;;;;;;;63.25;48.00;;;;;;;;5040115;28;50886;-90
2022/12/09 08:55:41;;;;;;;;;56.00;44.50;;;;;;;;5025483;28;50972;-90
2022/12/09 08:58:25;;;;;;;;;61.00;44.75;;;;;;;;5027458;28;50695;-92
2022/12/09 09:01:17;;;;;;;;;62.50;47.25;;;;;;;;5037604;28;50935;-91
2022/12/09 09:04:05;;;;;;;;;58.25;46.00;;;;;;;;5045555;28;51362;-90
2022/12/09 09:06:51;;;;;;;;;59.50;47.00;;;;;;;;5049923;28;51266;-91
2022/12/09 09:09:36;;;;;;;;;63.50;48.50;;;;;;;;5038620;28;50519;-91
2022/12/09 09:12:20;;;;;;;;;58.50;44.75;;;;;;;;5034003;28;50436;-90
2022/12/09 09:15:05;;;;;;;;;60.00;46.75;;;;;;;;5025906;28;50957;-91
2022/12/09 09:17:52;;;;;;;;;60.00;47.25;;;;;;;;5038509;28;50464;-92
2022/12/09 09:21:01;;;;;;;;;52.00;43.00;;;;;;;;5039838;28;50489;-92
2022/12/09 09:24:16;;;;;;;;;;;;;;;;;;;;;
2022/12/09 09:30:35;;;;;;;;;55.25;42.50;;;;;;;;5029986;28;50530;-94
2022/12/09 09:33:51;;;;;;;;;55.00;44.25;;;;;;;;5055274;28;50601;-91
2022/12/09 09:37:10;;;;;;;;;49.75;38.25;;;;;;;;5067428;28;50628;-93
2022/12/09 09:40:13;;;;;;;;;51.75;39.75;;;;;;;;5074065;28;50963;-91
2022/12/09 09:43:14;;;;;;;;;48.75;40.25;;;;;;;;5072554;28;50908;-92
2022/12/09 09:46:18;;;;;;;;;50.50;41.25;;;;;;;;5065723;28;50486;-95
2022/12/09 09:49:12;;;;;;;;;49.50;40.25;;;;;;;;5077783;27;50405;-93
2022/12/09 09:52:35;;;;;;;;;44.75;36.25;;;;;;;;5073480;28;50591;-94
2022/12/09 09:55:55;;;;;;;;;46.75;34.50;;;;;;;;5081874;28;51210;-93
2022/12/09 09:59:23;;;;;;;;;;;;;;;;;;;;;
2022/12/09 10:05:31;;;;;;;;;;;;;;;;;;;;;
2022/12/09 10:08:59;;;;;;;;;;;;;;;;;;;;;
2022/12/09 10:12:08;;;;;;;;;51.75;40.50;;;;;;;;5087852;28;51129;-94
2022/12/09 10:18:49;;;;;;;;;;;;;;;;;;;;;
2022/12/09 10:21:37;;;;;;;;;45.50;36.25;;;;;;;;5086706;22;51227;-50
2022/12/09 10:24:24;;;;;;;;;45.75;35.25;;;;;;;;5034674;28;51452;-48
2022/12/09 10:29:57;;;;;;;;;63.00;46.75;;;;;;;;4996714;28;51479;-45
2022/12/09 10:32:41;;;;;;;;;54.25;41.25;;;;;;;;4996836;28;51628;-46
2022/12/09 10:35:27;;;;;;;;;52.75;41.75;;;;;;;;4997092;28;51178;-46
2022/12/09 10:40:57;;;;;;;;;51.00;42.25;;;;;;;;4976819;28;51131;-47
2022/12/09 10:43:42;;;;;;;;;47.75;40.25;;;;;;;;4977237;28;51039;-47
2022/12/09 10:46:26;;;;;;;;;48.50;38.50;;;;;;;;4977283;28;51238;-45
2022/12/09 10:49:18;;;;;;;;;54.25;42.50;;;;;;;;4977099;28;51168;-47
2022/12/09 10:52:03;;;;;;;;;55.25;44.00;;;;;;;;4976889;28;51327;-48
2022/12/09 10:54:47;;;;;;;;;52.75;41.25;;;;;;;;4972578;28;51101;-46
2022/12/09 10:57:31;;;;;;;;;53.25;42.00;;;;;;;;4976018;28;51461;-49
2022/12/09 11:00:20;;;;;;;;;53.50;41.75;;;;;;;;4976732;28;51212;-47
2022/12/09 11:03:20;;;;;;;;;54.50;42.25;;;;;;;;4976828;28;51669;-48
2022/12/09 11:06:14;;;;;;;;;42.75;34.25;;;;;;;;4979585;28;51412;-48
2022/12/09 11:09:02;;;;;;;;;45.50;35.50;;;;;;;;5016877;28;51136;-46
2022/12/09 11:11:48;;;;;;;;;50.25;40.00;;;;;;;;5019484;28;51002;-48
2022/12/09 11:14:37;;;;;;;;;46.00;38.25;;;;;;;;5020075;28;51634;-48
2022/12/09 11:17:31;;;;;;;;;46.25;36.00;;;;;;;;5010929;28;51137;-47
2022/12/09 11:20:18;;;;;;;;;43.75;34.00;;;;;;;;5042104;28;51392;-47
2022/12/09 11:23:14;;;;;;;;;47.25;38.00;;;;;;;;5041523;28;51546;-50
2022/12/09 11:25:58;;;;;;;;;41.50;35.25;;;;;;;;5041909;28;51008;-47
2022/12/09 11:29:02;;;;;;;;;48.25;37.75;;;;;;;;4977176;28;51581;-48
2022/12/09 11:31:47;;;;;;;;;44.25;35.50;;;;;;;;4979789;28;51480;-47
2022/12/09 11:34:31;;;;;;;;;51.00;40.25;;;;;;;;4980285;28;51430;-50
2022/12/09 11:37:16;;;;;;;;;44.50;36.00;;;;;;;;4980068;28;51156;-47
2022/12/09 11:40:00;;;;;;;;;45.00;34.50;;;;;;;;4979050;28;51674;-46
2022/12/09 11:42:54;;;;;;;;;46.50;36.75;;;;;;;;4979179;28;51109;-48
2022/12/09 11:45:39;;;;;;;;;43.00;34.50;;;;;;;;4979743;28;51048;-47
2022/12/09 11:48:28;;;;;;;;;41.50;31.75;;;;;;;;4979470;28;51548;-48
2022/12/09 11:51:32;;;;;;;;;39.75;31.25;;;;;;;;4962767;28;51141;-48
2022/12/09 11:54:35;;;;;;;;;39.50;31.75;;;;;;;;4980000;28;51673;-48
2022/12/09 11:57:31;;;;;;;;;34.00;29.75;;;;;;;;4979632;28;51047;-49
2022/12/09 12:00:15;;;;;;;;;39.50;33.25;;;;;;;;4979187;28;51069;-49
2022/12/09 12:03:03;;;;;;;;;42.25;32.75;;;;;;;;4965192;28;51161;-48
2022/12/09 12:05:49;;;;;;;;;38.75;33.75;;;;;;;;5012189;28;51160;-46
2022/12/09 12:08:33;;;;;;;;;36.75;32.00;;;;;;;;5038528;28;51148;-49
2022/12/09 12:11:20;;;;;;;;;36.50;30.00;;;;;;;;5039462;28;51598;-46
2022/12/09 12:14:12;;;;;;;;;33.50;27.75;;;;;;;;5039732;28;51140;-52
2022/12/09 12:17:14;;;;;;;;;36.00;28.75;;;;;;;;5040696;28;51131;-51
2022/12/09 12:19:58;;;;;;;;;31.75;28.75;;;;;;;;5039991;28;51147;-50
2022/12/09 12:22:43;;;;;;;;;30.25;27.50;;;;;;;;5039777;28;51180;-52
2022/12/09 12:25:36;;;;;;;;;32.25;28.25;;;;;;;;5040732;28;51059;-49
2022/12/09 12:28:20;;;;;;;;;32.25;30.00;;;;;;;;5040907;28;51584;-48
2022/12/09 12:31:04;;;;;;;;;35.75;29.25;;;;;;;;5041044;28;51511;-48
2022/12/09 12:34:03;;;;;;;;;42.25;32.25;;;;;;;;5038511;28;51270;-49
2022/12/09 12:36:54;;;;;;;;;33.25;28.75;;;;;;;;5039213;28;51135;-47
2022/12/09 12:39:44;;;;;;;;;37.25;31.00;;;;;;;;5039174;28;51365;-48
2022/12/09 12:49:10;;;;;;;;;39.50;31.00;;;;;;;;5040081;28;51114;-49
2022/12/09 12:52:18;;;;;;;;;37.00;32.00;;;;;;;;5040452;28;51111;-49
2022/12/09 12:55:19;;;;;;;;;33.75;27.50;;;;;;;;5040450;28;51067;-46
2022/12/09 12:58:04;;;;;;;;;35.50;31.00;;;;;;;;5040476;28;51636;-50
2022/12/09 13:01:04;;;;;;;;;34.25;30.25;;;;;;;;5040139;28;51032;-49
2022/12/09 13:04:03;;;;;;;;;39.75;30.00;;;;;;;;5040600;28;51017;-48
2022/12/09 13:06:54;;;;;;;;;23.75;23.00;;;;;;;;5039935;28;51483;-48
2022/12/09 13:09:44;;;;;;;;;31.25;28.25;;;;;;;;5033570;28;51477;-50
2022/12/09 13:15:42;;;;;;;;;34.50;29.00;;;;;;;;5040117;28;51063;-48
2022/12/09 13:18:34;;;;;;;;;34.75;26.75;;;;;;;;5039802;28;51004;-46
2022/12/09 13:21:20;;;;;;;;;31.50;29.25;;;;;;;;5039769;28;51573;-49
2022/12/09 13:24:25;;;;;;;;;32.75;26.75;;;;;;;;5040025;28;51063;-46
2022/12/09 13:27:25;;;;;;;;;30.25;25.25;;;;;;;;5039740;28;51159;-48
2022/12/09 13:30:19;;;;;;;;;26.50;24.50;;;;;;;;5040122;28;51107;-49
2022/12/09 13:33:03;;;;;;;;;32.25;22.00;;;;;;;;5039044;28;51072;-52
2022/12/09 13:35:58;;;;;;;;;27.50;21.25;;;;;;;;5039504;28;51060;-46
2022/12/09 13:38:43;;;;;;;;;28.25;25.00;;;;;;;;5039257;28;51430;-48
2022/12/09 13:42:51;;;;;;;;;28.25;23.50;;;;;;;;5039579;28;51143;-51
2022/12/09 13:44:35;;;;;;;;;25.50;24.00;;;;;;;;5040023;28;51131;-49
2022/12/09 13:47:20;;;;;;;;;26.00;21.25;;;;;;;;5039562;28;51581;-49
2022/12/09 13:50:07;;;;;;;;;21.75;21.25;;;;;;;;5039496;28;51375;-48
2022/12/09 13:52:55;;;;;;;;;24.25;19.50;;;;;;;;5033714;28;51194;-47
2022/12/09 13:55:58;;;;;;;;;24.25;21.50;;;;;;;;5039729;28;51052;-49
2022/12/09 13:58:45;;;;;;;;;21.25;21.25;;;;;;;;5038545;28;51062;-48
2022/12/09 14:01:36;;;;;;;;;22.00;19.25;;;;;;;;5039523;28;51605;-49
2022/12/09 14:04:24;;;;;;;;;26.25;22.25;;;;;;;;5039166;28;51409;-49
2022/12/09 14:07:27;;;;;;;;;26.00;21.50;;;;;;;;5039045;28;51228;-47
2022/12/09 14:10:30;;;;;;;;;22.25;17.75;;;;;;;;5038324;28;51064;-48
2022/12/09 14:13:20;;;;;;;;;22.50;20.25;;;;;;;;5038850;28;51120;-49
2022/12/09 14:16:08;;;;;;;;;22.00;18.75;;;;;;;;5039347;28;51323;-48
2022/12/09 14:18:52;;;;;;;;;21.25;18.50;;;;;;;;5038890;28;51294;-48
2022/12/09 14:21:36;;;;;;;;;25.00;20.00;;;;;;;;5037730;28;51059;-49
2022/12/09 14:24:20;;;;;;;;;26.25;22.50;;;;;;;;5037608;28;51107;-47
2022/12/09 14:27:06;;;;;;;;;25.50;21.50;;;;;;;;5039141;28;52029;-48
2022/12/09 14:29:53;;;;;;;;;22.00;19.75;;;;;;;;5038419;28;51052;-49
2022/12/09 14:32:55;;;;;;;;;25.75;22.25;;;;;;;;5039028;28;51104;-50
2022/12/09 14:36:27;;;;;;;;;22.25;20.00;;;;;;;;4326040;32;51581;-53
2022/12/09 14:39:24;;;;;;;;;23.00;19.25;;;;;;;;5061995;27;51161;-51
2022/12/09 14:42:34;;;;;;;;;27.50;22.25;;;;;;;;5076498;27;51118;-50
2022/12/09 14:45:30;;;;;;;;;25.50;21.25;;;;;;;;5076808;27;51227;-50
2022/12/09 14:48:17;;;;;;;;;26.00;19.75;;;;;;;;5076914;27;51443;-50
2022/12/09 14:51:20;;;;;;;;;27.75;23.00;;;;;;;;5072002;27;51080;-50
2022/12/09 14:54:20;;;;;;;;;19.25;16.25;;;;;;;;5077062;27;51261;-50
2022/12/09 14:57:06;;;;;;;;;18.50;18.25;;;;;;;;5070902;27;51428;-49
2022/12/09 14:59:52;;;;;;;;;26.00;20.25;;;;;;;;5076632;27;50987;-46
2022/12/09 15:02:37;;;;;;;;;23.25;19.50;;;;;;;;5075732;27;51105;-44
2022/12/09 15:07:33;;;;;;;;;23.50;22.00;;;;;;;;4325943;32;51081;-46
2022/12/09 15:10:22;;;;;;;;;20.25;19.00;;;;;;;;5067823;27;51163;-47
2022/12/09 15:13:09;;;;;;;;;23.75;20.25;;;;;;;;5076448;27;51228;-48
2022/12/09 15:15:53;;;;;;;;;20.50;15.25;;;;;;;;5083592;27;51170;-48
2022/12/09 15:18:39;;;;;;;;;22.25;19.00;;;;;;;;5111178;27;51440;-49
2022/12/09 15:21:28;;;;;;;;;26.50;22.00;;;;;;;;5096665;27;51024;-45
2022/12/09 15:24:14;;;;;;;;;17.75;15.00;;;;;;;;5097523;27;51035;-44
2022/12/09 15:27:00;;;;;;;;;30.50;22.50;;;;;;;;5096808;27;51006;-45
2022/12/09 15:29:44;;;;;;;;;26.50;19.00;;;;;;;;5096918;27;51124;-46
2022/12/09 15:32:29;;;;;;;;;25.00;20.75;;;;;;;;5096361;27;51104;-47
2022/12/09 15:35:15;;;;;;;;;27.25;20.50;;;;;;;;5097496;27;51483;-44
2022/12/09 15:38:01;;;;;;;;;22.25;19.50;;;;;;;;5096647;27;51416;-48
2022/12/09 15:43:50;;;;;;;;;22.25;19.25;;;;;;;;5075929;27;51332;-45
2022/12/09 15:46:37;;;;;;;;;22.50;21.25;;;;;;;;5090965;27;51144;-45
2022/12/09 15:49:24;;;;;;;;;21.00;17.00;;;;;;;;5096925;27;51048;-45
2022/12/09 15:52:08;;;;;;;;;23.75;19.75;;;;;;;;5095843;27;51087;-48
2022/12/09 15:54:52;;;;;;;;;22.25;21.00;;;;;;;;5096642;27;51074;-45
2022/12/09 15:57:38;;;;;;;;;26.75;22.25;;;;;;;;5096255;27;51183;-45
2022/12/09 16:00:22;;;;;;;;;26.75;17.00;;;;;;;;5082263;27;51108;-51
2022/12/09 16:03:07;;;;;;;;;26.50;17.00;;;;;;;;5073542;27;51450;-50
2022/12/09 16:05:52;;;;;;;;;25.50;19.50;;;;;;;;5075272;27;51137;-45
2022/12/09 16:08:39;;;;;;;;;20.50;17.50;;;;;;;;5075881;27;51434;-46
2022/12/09 16:11:53;;;;;;;;;20.25;17.25;;;;;;;;5070130;27;51070;-50
2022/12/09 16:14:42;;;;;;;;;18.75;16.75;;;;;;;;5092467;27;51124;-49
2022/12/09 16:17:30;;;;;;;;;21.25;18.25;;;;;;;;5077187;27;51063;-48
2022/12/09 16:20:19;;;;;;;;;19.50;18.00;;;;;;;;5057536;27;51023;-44
2022/12/09 16:23:05;;;;;;;;;27.00;22.00;;;;;;;;5061165;28;51208;-46
2022/12/09 16:25:50;;;;;;;;;21.25;17.75;;;;;;;;5057196;28;51087;-43
2022/12/09 16:28:34;;;;;;;;;25.00;19.00;;;;;;;;5061621;28;51580;-47
2022/12/09 16:31:19;;;;;;;;;25.50;21.50;;;;;;;;5062167;28;50964;-47
2022/12/09 16:34:03;;;;;;;;;17.75;15.00;;;;;;;;5077418;27;51037;-48
2022/12/09 16:36:53;;;;;;;;;22.25;19.25;;;;;;;;5061326;28;51078;-45
2022/12/09 16:39:37;;;;;;;;;26.75;23.25;;;;;;;;5062109;27;51332;-47
2022/12/09 16:42:31;;;;;;;;;22.25;21.00;;;;;;;;5061622;28;51545;-46
2022/12/09 16:45:28;;;;;;;;;22.00;19.25;;;;;;;;5060846;28;51686;-47
2022/12/09 16:48:12;;;;;;;;;18.00;18.00;;;;;;;;5061320;28;51116;-44
2022/12/09 16:50:56;;;;;;;;;23.50;21.00;;;;;;;;5061992;28;51157;-51
2022/12/09 16:53:46;;;;;;;;;22.25;21.50;;;;;;;;5059987;28;51484;-46
2022/12/09 16:56:31;;;;;;;;;23.75;19.00;;;;;;;;5061375;28;51039;-48
2022/12/09 16:59:15;;;;;;;;;19.25;17.25;;;;;;;;5061272;28;51464;-48
2022/12/09 17:02:00;;;;;;;;;24.75;21.75;;;;;;;;5061199;28;51119;-46
2022/12/09 17:04:44;;;;;;;;;27.00;21.75;;;;;;;;5060981;28;51056;-47
2022/12/09 17:07:29;;;;;;;;;23.00;21.25;;;;;;;;5060417;28;51471;-45
2022/12/09 17:10:14;;;;;;;;;23.75;20.25;;;;;;;;5060628;27;51165;-47
2022/12/09 17:12:58;;;;;;;;;23.50;20.75;;;;;;;;5064524;27;51190;-46
2022/12/09 17:15:43;;;;;;;;;20.75;20.00;;;;;;;;5062736;27;51014;-48
2022/12/09 17:18:28;;;;;;;;;23.25;18.75;;;;;;;;5053681;27;51693;-48
2022/12/09 17:21:13;;;;;;;;;20.00;17.50;;;;;;;;5081322;27;51215;-47
2022/12/09 17:23:57;;;;;;;;;18.75;15.50;;;;;;;;5081252;27;51323;-44
2022/12/09 17:26:41;;;;;;;;;30.50;18.75;;;;;;;;5080416;27;51204;-47
2022/12/09 17:29:26;;;;;;;;;21.50;21.50;;;;;;;;5079572;27;51100;-48
2022/12/09 17:32:11;;;;;;;;;24.75;20.75;;;;;;;;5080721;27;51325;-48
2022/12/09 17:34:55;;;;;;;;;21.75;19.50;;;;;;;;5060105;28;51020;-46
2022/12/09 17:37:40;;;;;;;;;18.75;18.25;;;;;;;;5059828;28;51299;-46
2022/12/09 17:40:24;;;;;;;;;22.00;21.75;;;;;;;;5058932;28;51984;-45
2022/12/09 17:43:09;;;;;;;;;25.75;21.25;;;;;;;;5058988;28;51385;-45
2022/12/09 17:45:54;;;;;;;;;22.00;18.50;;;;;;;;5059489;28;51185;-47
2022/12/09 17:48:39;;;;;;;;;22.00;21.50;;;;;;;;5060112;28;51078;-47
2022/12/09 17:51:23;;;;;;;;;26.75;23.50;;;;;;;;5058637;28;51076;-46
2022/12/09 17:54:07;;;;;;;;;24.25;22.50;;;;;;;;5055683;27;51005;-47
2022/12/09 17:56:52;;;;;;;;;24.00;23.00;;;;;;;;5056237;28;51176;-47
2022/12/09 17:59:37;;;;;;;;;19.25;19.00;;;;;;;;5059633;27;51252;-46
2022/12/09 18:02:21;;;;;;;;;24.25;21.75;;;;;;;;5058333;28;51152;-47
2022/12/09 18:05:06;;;;;;;;;27.25;23.00;;;;;;;;5059100;28;51102;-45
2022/12/09 18:07:51;;;;;;;;;23.50;20.25;;;;;;;;5054718;28;51214;-47
2022/12/09 18:10:35;;;;;;;;;25.00;25.00;;;;;;;;5057936;28;51149;-48
2022/12/09 18:13:20;;;;;;;;;29.00;23.00;;;;;;;;5058504;28;51426;-47
2022/12/09 18:16:08;;;;;;;;;21.50;19.50;;;;;;;;5059143;28;51258;-48
2022/12/09 18:18:53;;;;;;;;;44.25;35.00;;;;;;;;5061690;27;51224;-45
2022/12/09 18:21:38;;;;;;;;;29.75;24.75;;;;;;;;5057760;27;50999;-48
2022/12/09 18:24:22;;;;;;;;;32.25;26.50;;;;;;;;5062667;27;51450;-47
2022/12/09 18:27:07;;;;;;;;;31.50;23.25;;;;;;;;5080066;27;51147;-44
2022/12/09 18:29:51;;;;;;;;;27.75;23.25;;;;;;;;5080696;27;51248;-56
2022/12/09 18:32:36;;;;;;;;;25.75;21.25;;;;;;;;5079904;27;51610;-52
2022/12/09 18:35:20;;;;;;;;;24.75;22.25;;;;;;;;5079859;27;51173;-57
2022/12/09 18:38:04;;;;;;;;;24.00;22.00;;;;;;;;5065585;27;51016;-57
2022/12/09 18:41:01;;;;;;;;;19.75;16.25;;;;;;;;5058461;28;52606;-56
2022/12/09 18:43:46;;;;;;;;;26.75;24.00;;;;;;;;5059510;27;51236;-56
2022/12/09 18:46:35;;;;;;;;;22.25;20.50;;;;;;;;5079354;27;51419;-55
2022/12/09 18:49:20;;;;;;;;;24.00;21.50;;;;;;;;5078453;27;51113;-56
2022/12/09 18:52:04;;;;;;;;;27.75;25.50;;;;;;;;5077437;27;51176;-56
2022/12/09 18:54:49;;;;;;;;;27.00;23.50;;;;;;;;5061085;27;51169;-56
2022/12/09 18:57:33;;;;;;;;;28.25;26.25;;;;;;;;5061219;27;52686;-57
2022/12/09 19:00:18;;;;;;;;;26.50;23.75;;;;;;;;5058462;27;51107;-53
2022/12/09 19:03:02;;;;;;;;;33.75;28.00;;;;;;;;5061062;28;51087;-55
2022/12/09 19:05:47;;;;;;;;;23.25;20.50;;;;;;;;5058749;28;51102;-57
2022/12/09 19:08:31;;;;;;;;;24.75;20.00;;;;;;;;5059790;28;51152;-57
2022/12/09 19:11:16;;;;;;;;;25.00;23.75;;;;;;;;5058257;28;51173;-56
2022/12/09 19:14:00;;;;;;;;;18.50;18.00;;;;;;;;5059956;28;51564;-56
2022/12/09 19:16:45;;;;;;;;;22.75;21.75;;;;;;;;5061228;28;51235;-55
2022/12/09 19:19:30;;;;;;;;;33.50;25.00;;;;;;;;5062988;28;51229;-56
2022/12/09 19:22:14;;;;;;;;;27.50;23.75;;;;;;;;5060130;28;51075;-55
2022/12/09 19:24:58;;;;;;;;;36.00;29.50;;;;;;;;5062694;28;51002;-56
2022/12/09 19:27:45;;;;;;;;;30.75;27.00;;;;;;;;5060753;28;51183;-56
2022/12/09 19:30:30;;;;;;;;;31.50;26.25;;;;;;;;5060179;28;51240;-55
2022/12/09 19:33:14;;;;;;;;;25.75;22.25;;;;;;;;5059289;28;51132;-56
2022/12/09 19:36:01;;;;;;;;;21.75;19.75;;;;;;;;5075052;28;51420;-55
2022/12/09 19:38:45;;;;;;;;;28.75;24.25;;;;;;;;5065209;28;51424;-56
2022/12/09 19:41:30;;;;;;;;;28.25;24.75;;;;;;;;5057672;28;51253;-56
2022/12/09 19:44:15;;;;;;;;;33.00;24.50;;;;;;;;5059264;28;51271;-56
2022/12/09 19:47:00;;;;;;;;;26.00;22.00;;;;;;;;5058805;28;51459;-58
2022/12/09 19:49:44;;;;;;;;;30.25;24.50;;;;;;;;5058896;28;51169;-56
2022/12/09 19:52:28;;;;;;;;;29.50;25.00;;;;;;;;5059798;28;51026;-55
2022/12/09 19:55:13;;;;;;;;;23.00;20.75;;;;;;;;5062583;28;51091;-55
2022/12/09 19:57:57;;;;;;;;;25.75;25.00;;;;;;;;5062771;28;51010;-57
2022/12/09 20:00:42;;;;;;;;;27.00;21.75;;;;;;;;5062593;28;51129;-55
2022/12/09 20:03:26;;;;;;;;;28.00;23.75;;;;;;;;5062500;28;51375;-54
2022/12/09 20:06:12;;;;;;;;;21.25;20.00;;;;;;;;5062454;28;51034;-54
2022/12/09 20:09:00;;;;;;;;;18.00;16.75;;;;;;;;5061295;28;51113;-56
2022/12/09 20:11:44;;;;;;;;;21.00;19.75;;;;;;;;5061979;28;51487;-57
2022/12/09 20:14:29;;;;;;;;;35.50;29.75;;;;;;;;5062497;28;51094;-57
2022/12/09 20:17:15;;;;;;;;;28.50;22.75;;;;;;;;5062259;28;51560;-57
2022/12/09 20:19:59;;;;;;;;;22.75;20.50;;;;;;;;5062064;28;51224;-56
2022/12/09 20:22:44;;;;;;;;;22.25;21.25;;;;;;;;5062166;28;51043;-57
2022/12/09 20:25:28;;;;;;;;;18.25;18.25;;;;;;;;5062210;28;51098;-56
2022/12/09 20:28:12;;;;;;;;;23.50;19.25;;;;;;;;5062322;28;51488;-55
2022/12/09 20:31:11;;;;;;;;;22.75;19.75;;;;;;;;5062008;28;51156;-55
2022/12/09 20:33:57;;;;;;;;;29.25;22.00;;;;;;;;5062390;28;51150;-56
2022/12/09 20:36:42;;;;;;;;;19.75;17.75;;;;;;;;5061992;28;51475;-56
2022/12/09 20:39:26;;;;;;;;;27.75;20.50;;;;;;;;5054223;28;51221;-57
2022/12/09 20:42:10;;;;;;;;;25.75;19.75;;;;;;;;5061480;28;51223;-56
2022/12/09 20:44:56;;;;;;;;;25.50;21.75;;;;;;;;5061475;28;51078;-57
2022/12/09 20:47:40;;;;;;;;;24.50;20.75;;;;;;;;5062068;28;51155;-57
2022/12/09 20:50:24;;;;;;;;;26.25;19.50;;;;;;;;5061713;28;51067;-57
2022/12/09 20:53:09;;;;;;;;;23.75;19.25;;;;;;;;5061825;28;51496;-58
2022/12/09 20:55:54;;;;;;;;;23.75;21.00;;;;;;;;5061353;28;51046;-55
2022/12/09 20:58:39;;;;;;;;;24.75;18.75;;;;;;;;5061773;28;51129;-57
2022/12/09 21:01:24;;;;;;;;;25.25;21.50;;;;;;;;5061290;28;51387;-56
2022/12/09 21:04:09;;;;;;;;;22.75;21.50;;;;;;;;5062957;27;51106;-58
2022/12/09 21:06:53;;;;;;;;;19.75;19.75;;;;;;;;5068432;27;51356;-57
2022/12/09 21:09:38;;;;;;;;;25.25;21.25;;;;;;;;5061239;28;51189;-57
2022/12/09 21:12:22;;;;;;;;;28.25;19.00;;;;;;;;5061305;28;50988;-58
2022/12/09 21:15:07;;;;;;;;;23.75;22.50;;;;;;;;5061151;28;51117;-56
2022/12/09 21:17:53;;;;;;;;;23.00;21.75;;;;;;;;5061483;28;51331;-56
2022/12/09 21:20:38;;;;;;;;;23.00;20.50;;;;;;;;5061047;28;51030;-57
2022/12/09 21:23:23;;;;;;;;;24.25;18.75;;;;;;;;5061286;28;51147;-55
2022/12/09 21:26:08;;;;;;;;;24.00;21.75;;;;;;;;5060912;28;51114;-57
2022/12/09 21:28:52;;;;;;;;;22.50;21.25;;;;;;;;5061079;28;51159;-57
2022/12/09 21:31:39;;;;;;;;;26.75;21.25;;;;;;;;5060985;28;51610;-57
2022/12/09 21:34:24;;;;;;;;;26.25;21.75;;;;;;;;5060533;28;51086;-56
2022/12/09 21:37:08;;;;;;;;;19.50;19.00;;;;;;;;5061047;28;51065;-57
2022/12/09 21:39:53;;;;;;;;;25.75;21.75;;;;;;;;5058890;28;51251;-57
2022/12/09 21:42:37;;;;;;;;;26.00;24.25;;;;;;;;5060665;28;51104;-55
2022/12/09 21:45:21;;;;;;;;;23.25;19.50;;;;;;;;5057494;28;51109;-52
2022/12/09 21:48:06;;;;;;;;;21.50;18.75;;;;;;;;5060622;28;51202;-56
2022/12/09 21:50:54;;;;;;;;;31.25;20.75;;;;;;;;5060482;28;51557;-56
2022/12/09 21:53:39;;;;;;;;;25.75;22.00;;;;;;;;5060406;28;51077;-56
2022/12/09 21:56:24;;;;;;;;;21.50;19.25;;;;;;;;5057311;28;51407;-52
2022/12/09 21:59:09;;;;;;;;;21.75;20.25;;;;;;;;5060320;28;51164;-55
2022/12/09 22:01:54;;;;;;;;;28.00;21.00;;;;;;;;5060570;28;51018;-55
2022/12/09 22:04:39;;;;;;;;;24.25;17.00;;;;;;;;5060240;28;51159;-56
2022/12/09 22:07:23;;;;;;;;;20.75;19.25;;;;;;;;5060377;28;51142;-57
2022/12/09 22:10:07;;;;;;;;;28.75;21.00;;;;;;;;5060093;28;51038;-56
2022/12/09 22:12:52;;;;;;;;;28.25;24.25;;;;;;;;5057703;28;50987;-55
2022/12/09 22:15:36;;;;;;;;;23.25;20.00;;;;;;;;5059277;28;51521;-56
2022/12/09 22:18:21;;;;;;;;;22.00;20.00;;;;;;;;5060162;28;51169;-57
2022/12/09 22:21:06;;;;;;;;;22.75;20.00;;;;;;;;5060088;28;51228;-57
2022/12/09 22:23:55;;;;;;;;;24.50;22.75;;;;;;;;5060075;28;51214;-57
2022/12/09 22:26:42;;;;;;;;;21.75;21.75;;;;;;;;5059684;28;51502;-55
2022/12/09 22:29:26;;;;;;;;;25.50;22.50;;;;;;;;5064598;27;51001;-56
2022/12/09 22:32:11;;;;;;;;;20.75;18.75;;;;;;;;5080192;27;51105;-57
2022/12/09 22:34:56;;;;;;;;;23.00;19.75;;;;;;;;5079699;27;50957;-57
2022/12/09 22:37:40;;;;;;;;;21.75;20.25;;;;;;;;5075947;27;51027;-55
2022/12/09 22:40:25;;;;;;;;;22.25;20.00;;;;;;;;5058238;28;51272;-57
2022/12/09 22:43:09;;;;;;;;;26.25;21.75;;;;;;;;5059693;28;51054;-56
2022/12/09 22:45:54;;;;;;;;;22.25;19.50;;;;;;;;5059410;28;51117;-57
2022/12/09 22:48:39;;;;;;;;;25.75;22.00;;;;;;;;5059748;28;51011;-57
2022/12/09 22:51:24;;;;;;;;;28.50;23.50;;;;;;;;5070500;27;51153;-57
2022/12/09 22:54:09;;;;;;;;;30.25;25.00;;;;;;;;5079526;27;51240;-57
2022/12/09 22:56:53;;;;;;;;;31.75;27.00;;;;;;;;5079593;27;51342;-55
2022/12/09 22:59:38;;;;;;;;;28.00;24.75;;;;;;;;5079782;27;51153;-56
2022/12/09 23:02:22;;;;;;;;;23.00;17.00;;;;;;;;5079960;27;51164;-57
2022/12/09 23:05:07;;;;;;;;;20.75;18.75;;;;;;;;5079476;27;51560;-57
2022/12/09 23:07:51;;;;;;;;;21.50;19.75;;;;;;;;5079672;28;51139;-56
2022/12/09 23:10:35;;;;;;;;;23.25;20.25;;;;;;;;5059387;28;51007;-56
2022/12/09 23:13:20;;;;;;;;;25.00;20.50;;;;;;;;5056783;28;51075;-57
2022/12/09 23:16:06;;;;;;;;;28.75;22.50;;;;;;;;5058949;28;51166;-56
2022/12/09 23:18:51;;;;;;;;;19.75;18.00;;;;;;;;5059432;28;51107;-58
2022/12/09 23:21:36;;;;;;;;;23.50;19.00;;;;;;;;5059111;28;51146;-56
2022/12/09 23:24:20;;;;;;;;;29.75;22.50;;;;;;;;5055296;27;51247;-57
2022/12/09 23:27:05;;;;;;;;;21.50;21.25;;;;;;;;5059571;28;51054;-57